sensor_id;sensor_type;location;lat;lon;timestamp;P1;durP1;ratioP1;P2;durP2;ratioP2
69207;SDS011;70114;47.690;8.898;2023-05-15T00:02:08;8.70;;;2.30;;
69207;SDS011;70114;47.690;8.898;2023-05-15T00:04:34;7.57;;;2.50;;
69207;SDS011;70114;47.690;8.898;2023-05-15T00:06:59;7.63;;;2.20;;
69207;SDS011;70114;47.690;8.898;2023-05-15T00:09:25;8.20;;;2.77;;
69207;SDS011;70114;47.690;8.898;2023-05-15T00:11:51;7.72;;;2.55;;
69207;SDS011;70114;47.690;8.898;2023-05-15T00:14:16;8.27;;;2.87;;
69207;SDS011;70114;47.690;8.898;2023-05-15T00:16:42;7.50;;;2.13;;
69207;SDS011;70114;47.690;8.898;2023-05-15T00:19:07;8.07;;;2.70;;
69207;SDS011;70114;47.690;8.898;2023-05-15T00:21:33;8.57;;;2.80;;
69207;SDS011;70114;47.690;8.898;2023-05-15T00:23:58;8.43;;;2.93;;
69207;SDS011;70114;47.690;8.898;2023-05-15T00:26:23;7.68;;;2.40;;
69207;SDS011;70114;47.690;8.898;2023-05-15T00:28:49;8.77;;;2.80;;
69207;SDS011;70114;47.690;8.898;2023-05-15T00:31:15;7.78;;;2.72;;
69207;SDS011;70114;47.690;8.898;2023-05-15T00:33:41;8.90;;;3.23;;
69207;SDS011;70114;47.690;8.898;2023-05-15T00:36:06;8.25;;;2.85;;
69207;SDS011;70114;47.690;8.898;2023-05-15T00:38:32;8.90;;;2.63;;
69207;SDS011;70114;47.690;8.898;2023-05-15T00:40:58;9.23;;;3.10;;
69207;SDS011;70114;47.690;8.898;2023-05-15T00:43:25;9.33;;;3.30;;
69207;SDS011;70114;47.690;8.898;2023-05-15T00:45:51;9.20;;;3.40;;
69207;SDS011;70114;47.690;8.898;2023-05-15T00:48:18;9.32;;;3.67;;
69207;SDS011;70114;47.690;8.898;2023-05-15T00:50:43;10.50;;;3.47;;
69207;SDS011;70114;47.690;8.898;2023-05-15T00:53:09;10.25;;;3.58;;
69207;SDS011;70114;47.690;8.898;2023-05-15T00:55:35;8.77;;;3.53;;
69207;SDS011;70114;47.690;8.898;2023-05-15T00:58:01;9.43;;;3.63;;
69207;SDS011;70114;47.690;8.898;2023-05-15T01:00:27;9.90;;;3.55;;
69207;SDS011;70114;47.690;8.898;2023-05-15T01:02:55;9.25;;;3.60;;
69207;SDS011;70114;47.690;8.898;2023-05-15T01:05:20;10.77;;;4.17;;
69207;SDS011;70114;47.690;8.898;2023-05-15T01:07:51;9.10;;;3.65;;
69207;SDS011;70114;47.690;8.898;2023-05-15T01:10:28;10.13;;;3.75;;
69207;SDS011;70114;47.690;8.898;2023-05-15T01:12:54;10.70;;;3.90;;
69207;SDS011;70114;47.690;8.898;2023-05-15T01:15:22;10.38;;;3.70;;
69207;SDS011;70114;47.690;8.898;2023-05-15T01:17:48;11.00;;;3.97;;
69207;SDS011;70114;47.690;8.898;2023-05-15T01:20:15;10.33;;;3.97;;
69207;SDS011;70114;47.690;8.898;2023-05-15T01:22:48;10.93;;;4.28;;
69207;SDS011;70114;47.690;8.898;2023-05-15T01:26:02;11.27;;;4.50;;
69207;SDS011;70114;47.690;8.898;2023-05-15T01:28:11;12.32;;;4.32;;
69207;SDS011;70114;47.690;8.898;2023-05-15T01:30:42;11.38;;;4.40;;
69207;SDS011;70114;47.690;8.898;2023-05-15T01:33:20;11.00;;;4.17;;
69207;SDS011;70114;47.690;8.898;2023-05-15T01:43:50;11.00;;;4.05;;
69207;SDS011;70114;47.690;8.898;2023-05-15T01:46:21;11.83;;;4.80;;
69207;SDS011;70114;47.690;8.898;2023-05-15T01:48:48;10.18;;;4.00;;
69207;SDS011;70114;47.690;8.898;2023-05-15T01:51:15;12.45;;;4.68;;
69207;SDS011;70114;47.690;8.898;2023-05-15T01:53:42;11.65;;;4.30;;
69207;SDS011;70114;47.690;8.898;2023-05-15T01:56:10;11.65;;;4.40;;
69207;SDS011;70114;47.690;8.898;2023-05-15T01:58:37;11.93;;;3.87;;
69207;SDS011;70114;47.690;8.898;2023-05-15T02:01:04;11.05;;;4.13;;
69207;SDS011;70114;47.690;8.898;2023-05-15T02:03:31;11.23;;;4.30;;
69207;SDS011;70114;47.690;8.898;2023-05-15T02:05:58;10.93;;;3.80;;
69207;SDS011;70114;47.690;8.898;2023-05-15T02:08:25;10.50;;;3.95;;
69207;SDS011;70114;47.690;8.898;2023-05-15T02:10:53;11.63;;;4.20;;
69207;SDS011;70114;47.690;8.898;2023-05-15T02:13:20;10.45;;;3.92;;
69207;SDS011;70114;47.690;8.898;2023-05-15T02:15:47;11.45;;;4.18;;
69207;SDS011;70114;47.690;8.898;2023-05-15T02:18:12;10.93;;;4.07;;
69207;SDS011;70114;47.690;8.898;2023-05-15T02:20:38;10.65;;;4.13;;
69207;SDS011;70114;47.690;8.898;2023-05-15T02:23:03;10.00;;;3.87;;
69207;SDS011;70114;47.690;8.898;2023-05-15T02:25:33;11.73;;;4.27;;
69207;SDS011;70114;47.690;8.898;2023-05-15T02:28:08;10.48;;;3.72;;
69207;SDS011;70114;47.690;8.898;2023-05-15T02:30:48;11.35;;;3.90;;
69207;SDS011;70114;47.690;8.898;2023-05-15T02:33:41;10.60;;;3.80;;
69207;SDS011;70114;47.690;8.898;2023-05-15T02:36:18;11.18;;;4.00;;
69207;SDS011;70114;47.690;8.898;2023-05-15T02:38:46;10.20;;;3.90;;
69207;SDS011;70114;47.690;8.898;2023-05-15T02:41:14;10.80;;;4.07;;
69207;SDS011;70114;47.690;8.898;2023-05-15T02:43:40;9.93;;;3.40;;
69207;SDS011;70114;47.690;8.898;2023-05-15T02:46:07;9.77;;;3.83;;
69207;SDS011;70114;47.690;8.898;2023-05-15T02:48:34;11.57;;;3.97;;
69207;SDS011;70114;47.690;8.898;2023-05-15T02:51:03;10.30;;;3.70;;
69207;SDS011;70114;47.690;8.898;2023-05-15T02:53:30;10.80;;;3.72;;
69207;SDS011;70114;47.690;8.898;2023-05-15T02:55:56;11.18;;;4.30;;
69207;SDS011;70114;47.690;8.898;2023-05-15T02:58:22;11.27;;;4.10;;
69207;SDS011;70114;47.690;8.898;2023-05-15T03:00:47;10.27;;;3.67;;
69207;SDS011;70114;47.690;8.898;2023-05-15T03:03:12;10.47;;;3.70;;
69207;SDS011;70114;47.690;8.898;2023-05-15T03:05:38;10.27;;;3.83;;
69207;SDS011;70114;47.690;8.898;2023-05-15T03:08:04;10.73;;;4.20;;
69207;SDS011;70114;47.690;8.898;2023-05-15T03:10:30;11.02;;;4.10;;
69207;SDS011;70114;47.690;8.898;2023-05-15T03:12:55;11.73;;;4.17;;
69207;SDS011;70114;47.690;8.898;2023-05-15T03:15:22;12.00;;;4.32;;
69207;SDS011;70114;47.690;8.898;2023-05-15T03:17:47;12.33;;;4.60;;
69207;SDS011;70114;47.690;8.898;2023-05-15T03:20:13;13.17;;;4.60;;
69207;SDS011;70114;47.690;8.898;2023-05-15T03:22:39;14.00;;;5.30;;
69207;SDS011;70114;47.690;8.898;2023-05-15T03:25:05;12.38;;;4.65;;
69207;SDS011;70114;47.690;8.898;2023-05-15T03:27:32;13.93;;;4.90;;
69207;SDS011;70114;47.690;8.898;2023-05-15T03:29:57;13.55;;;5.10;;
69207;SDS011;70114;47.690;8.898;2023-05-15T03:32:23;15.03;;;5.17;;
69207;SDS011;70114;47.690;8.898;2023-05-15T03:34:48;14.67;;;4.83;;
69207;SDS011;70114;47.690;8.898;2023-05-15T03:37:13;13.67;;;5.10;;
69207;SDS011;70114;47.690;8.898;2023-05-15T03:39:39;12.85;;;4.88;;
69207;SDS011;70114;47.690;8.898;2023-05-15T03:42:04;14.10;;;5.03;;
69207;SDS011;70114;47.690;8.898;2023-05-15T03:44:30;13.77;;;5.47;;
69207;SDS011;70114;47.690;8.898;2023-05-15T03:46:55;14.20;;;5.73;;
69207;SDS011;70114;47.690;8.898;2023-05-15T03:49:20;11.63;;;4.45;;
69207;SDS011;70114;47.690;8.898;2023-05-15T03:51:46;13.33;;;4.87;;
69207;SDS011;70114;47.690;8.898;2023-05-15T03:54:11;14.70;;;5.27;;
69207;SDS011;70114;47.690;8.898;2023-05-15T03:56:37;13.63;;;5.27;;
69207;SDS011;70114;47.690;8.898;2023-05-15T03:59:02;12.90;;;4.80;;
69207;SDS011;70114;47.690;8.898;2023-05-15T04:01:27;13.20;;;5.10;;
69207;SDS011;70114;47.690;8.898;2023-05-15T04:03:53;13.77;;;5.37;;
69207;SDS011;70114;47.690;8.898;2023-05-15T04:06:18;14.00;;;5.23;;
69207;SDS011;70114;47.690;8.898;2023-05-15T04:08:44;15.33;;;5.20;;
69207;SDS011;70114;47.690;8.898;2023-05-15T04:11:09;12.40;;;4.67;;
69207;SDS011;70114;47.690;8.898;2023-05-15T04:13:36;14.07;;;4.97;;
69207;SDS011;70114;47.690;8.898;2023-05-15T04:16:01;14.40;;;4.80;;
69207;SDS011;70114;47.690;8.898;2023-05-15T04:18:28;13.40;;;5.00;;
69207;SDS011;70114;47.690;8.898;2023-05-15T04:20:53;11.77;;;4.40;;
69207;SDS011;70114;47.690;8.898;2023-05-15T04:23:18;12.27;;;4.65;;
69207;SDS011;70114;47.690;8.898;2023-05-15T04:25:44;14.13;;;4.80;;
69207;SDS011;70114;47.690;8.898;2023-05-15T04:28:11;12.95;;;4.78;;
69207;SDS011;70114;47.690;8.898;2023-05-15T04:30:37;12.30;;;4.63;;
69207;SDS011;70114;47.690;8.898;2023-05-15T04:33:02;12.47;;;4.70;;
69207;SDS011;70114;47.690;8.898;2023-05-15T04:35:28;11.10;;;4.23;;
69207;SDS011;70114;47.690;8.898;2023-05-15T04:37:54;12.00;;;4.70;;
69207;SDS011;70114;47.690;8.898;2023-05-15T04:40:20;10.73;;;4.10;;
69207;SDS011;70114;47.690;8.898;2023-05-15T04:42:45;11.95;;;4.70;;
69207;SDS011;70114;47.690;8.898;2023-05-15T04:45:11;11.23;;;4.40;;
69207;SDS011;70114;47.690;8.898;2023-05-15T04:47:36;13.70;;;4.57;;
69207;SDS011;70114;47.690;8.898;2023-05-15T04:50:02;11.48;;;4.07;;
69207;SDS011;70114;47.690;8.898;2023-05-15T04:52:27;12.63;;;4.43;;
69207;SDS011;70114;47.690;8.898;2023-05-15T04:54:53;11.40;;;4.07;;
69207;SDS011;70114;47.690;8.898;2023-05-15T04:57:19;12.23;;;4.25;;
69207;SDS011;70114;47.690;8.898;2023-05-15T04:59:45;12.23;;;4.38;;
69207;SDS011;70114;47.690;8.898;2023-05-15T05:02:11;10.87;;;4.30;;
69207;SDS011;70114;47.690;8.898;2023-05-15T05:04:37;13.07;;;4.70;;
69207;SDS011;70114;47.690;8.898;2023-05-15T05:07:02;11.63;;;4.77;;
69207;SDS011;70114;47.690;8.898;2023-05-15T05:09:29;13.00;;;4.65;;
69207;SDS011;70114;47.690;8.898;2023-05-15T05:11:57;12.23;;;4.90;;
69207;SDS011;70114;47.690;8.898;2023-05-15T05:14:23;11.98;;;4.45;;
69207;SDS011;70114;47.690;8.898;2023-05-15T05:16:48;12.50;;;4.70;;
69207;SDS011;70114;47.690;8.898;2023-05-15T05:19:14;11.47;;;4.53;;
69207;SDS011;70114;47.690;8.898;2023-05-15T05:21:39;11.97;;;4.57;;
69207;SDS011;70114;47.690;8.898;2023-05-15T05:24:05;10.93;;;4.40;;
69207;SDS011;70114;47.690;8.898;2023-05-15T05:26:30;10.93;;;4.30;;
69207;SDS011;70114;47.690;8.898;2023-05-15T05:28:56;12.30;;;4.40;;
69207;SDS011;70114;47.690;8.898;2023-05-15T05:31:21;10.43;;;3.90;;
69207;SDS011;70114;47.690;8.898;2023-05-15T05:33:47;11.65;;;4.40;;
69207;SDS011;70114;47.690;8.898;2023-05-15T05:36:13;11.70;;;4.03;;
69207;SDS011;70114;47.690;8.898;2023-05-15T05:38:39;12.02;;;4.25;;
69207;SDS011;70114;47.690;8.898;2023-05-15T05:41:05;11.07;;;4.10;;
69207;SDS011;70114;47.690;8.898;2023-05-15T05:43:31;12.67;;;4.13;;
69207;SDS011;70114;47.690;8.898;2023-05-15T05:45:56;11.63;;;4.57;;
69207;SDS011;70114;47.690;8.898;2023-05-15T05:48:22;12.20;;;4.43;;
69207;SDS011;70114;47.690;8.898;2023-05-15T05:50:47;11.07;;;3.60;;
69207;SDS011;70114;47.690;8.898;2023-05-15T05:53:13;12.03;;;3.70;;
69207;SDS011;70114;47.690;8.898;2023-05-15T05:55:38;10.07;;;3.40;;
69207;SDS011;70114;47.690;8.898;2023-05-15T05:58:03;9.60;;;3.77;;
69207;SDS011;70114;47.690;8.898;2023-05-15T06:00:29;10.00;;;3.63;;
69207;SDS011;70114;47.690;8.898;2023-05-15T06:02:55;9.07;;;3.47;;
69207;SDS011;70114;47.690;8.898;2023-05-15T06:05:22;10.07;;;3.47;;
69207;SDS011;70114;47.690;8.898;2023-05-15T06:07:48;9.55;;;3.03;;
69207;SDS011;70114;47.690;8.898;2023-05-15T06:10:14;7.73;;;2.83;;
69207;SDS011;70114;47.690;8.898;2023-05-15T06:12:39;8.35;;;3.20;;
69207;SDS011;70114;47.690;8.898;2023-05-15T06:15:05;9.13;;;2.97;;
69207;SDS011;70114;47.690;8.898;2023-05-15T06:17:31;9.45;;;2.85;;
69207;SDS011;70114;47.690;8.898;2023-05-15T06:19:57;9.87;;;3.50;;
69207;SDS011;70114;47.690;8.898;2023-05-15T06:22:22;8.90;;;2.97;;
69207;SDS011;70114;47.690;8.898;2023-05-15T06:24:48;9.25;;;2.90;;
69207;SDS011;70114;47.690;8.898;2023-05-15T06:27:13;9.07;;;3.13;;
69207;SDS011;70114;47.690;8.898;2023-05-15T06:29:39;9.67;;;2.90;;
69207;SDS011;70114;47.690;8.898;2023-05-15T06:32:04;8.20;;;2.60;;
69207;SDS011;70114;47.690;8.898;2023-05-15T06:34:30;9.13;;;3.17;;
69207;SDS011;70114;47.690;8.898;2023-05-15T06:36:55;8.83;;;2.93;;
69207;SDS011;70114;47.690;8.898;2023-05-15T06:39:21;8.27;;;2.60;;
69207;SDS011;70114;47.690;8.898;2023-05-15T06:41:46;7.93;;;2.80;;
69207;SDS011;70114;47.690;8.898;2023-05-15T06:44:11;7.63;;;2.60;;
69207;SDS011;70114;47.690;8.898;2023-05-15T06:46:37;8.37;;;2.53;;
69207;SDS011;70114;47.690;8.898;2023-05-15T06:49:02;8.53;;;2.70;;
69207;SDS011;70114;47.690;8.898;2023-05-15T06:51:27;9.10;;;2.97;;
69207;SDS011;70114;47.690;8.898;2023-05-15T06:53:53;8.53;;;2.50;;
69207;SDS011;70114;47.690;8.898;2023-05-15T06:56:18;8.87;;;2.90;;
69207;SDS011;70114;47.690;8.898;2023-05-15T06:58:44;8.57;;;3.17;;
69207;SDS011;70114;47.690;8.898;2023-05-15T07:01:09;8.88;;;4.10;;
69207;SDS011;70114;47.690;8.898;2023-05-15T07:03:35;7.90;;;2.90;;
69207;SDS011;70114;47.690;8.898;2023-05-15T07:06:00;7.67;;;2.47;;
69207;SDS011;70114;47.690;8.898;2023-05-15T07:08:26;7.40;;;2.10;;
69207;SDS011;70114;47.690;8.898;2023-05-15T07:10:51;6.38;;;1.80;;
69207;SDS011;70114;47.690;8.898;2023-05-15T07:13:17;6.63;;;2.20;;
69207;SDS011;70114;47.690;8.898;2023-05-15T07:15:43;7.10;;;2.05;;
69207;SDS011;70114;47.690;8.898;2023-05-15T07:18:09;8.50;;;3.30;;
69207;SDS011;70114;47.690;8.898;2023-05-15T07:20:34;7.00;;;2.13;;
69207;SDS011;70114;47.690;8.898;2023-05-15T07:23:00;7.07;;;2.10;;
69207;SDS011;70114;47.690;8.898;2023-05-15T07:25:25;6.93;;;2.20;;
69207;SDS011;70114;47.690;8.898;2023-05-15T07:27:51;6.17;;;1.80;;
69207;SDS011;70114;47.690;8.898;2023-05-15T07:30:17;5.68;;;1.50;;
69207;SDS011;70114;47.690;8.898;2023-05-15T07:32:42;8.38;;;3.50;;
69207;SDS011;70114;47.690;8.898;2023-05-15T07:35:08;7.00;;;2.20;;
69207;SDS011;70114;47.690;8.898;2023-05-15T07:37:35;6.35;;;1.92;;
69207;SDS011;70114;47.690;8.898;2023-05-15T07:40:01;6.20;;;1.97;;
69207;SDS011;70114;47.690;8.898;2023-05-15T07:42:26;6.60;;;1.87;;
69207;SDS011;70114;47.690;8.898;2023-05-15T07:44:51;6.47;;;1.80;;
69207;SDS011;70114;47.690;8.898;2023-05-15T07:47:17;7.53;;;2.13;;
69207;SDS011;70114;47.690;8.898;2023-05-15T07:49:42;7.57;;;2.10;;
69207;SDS011;70114;47.690;8.898;2023-05-15T07:52:07;8.27;;;2.10;;
69207;SDS011;70114;47.690;8.898;2023-05-15T07:54:33;7.50;;;2.27;;
69207;SDS011;70114;47.690;8.898;2023-05-15T07:56:58;7.20;;;1.83;;
69207;SDS011;70114;47.690;8.898;2023-05-15T07:59:24;6.50;;;1.60;;
69207;SDS011;70114;47.690;8.898;2023-05-15T08:01:49;8.27;;;1.70;;
69207;SDS011;70114;47.690;8.898;2023-05-15T08:04:14;6.07;;;1.50;;
69207;SDS011;70114;47.690;8.898;2023-05-15T08:06:40;5.53;;;1.40;;
69207;SDS011;70114;47.690;8.898;2023-05-15T08:09:06;5.82;;;1.25;;
69207;SDS011;70114;47.690;8.898;2023-05-15T08:11:33;6.22;;;1.80;;
69207;SDS011;70114;47.690;8.898;2023-05-15T08:13:59;6.57;;;1.60;;
69207;SDS011;70114;47.690;8.898;2023-05-15T08:16:24;5.67;;;1.60;;
69207;SDS011;70114;47.690;8.898;2023-05-15T08:18:49;5.70;;;1.33;;
69207;SDS011;70114;47.690;8.898;2023-05-15T08:21:17;6.10;;;1.40;;
69207;SDS011;70114;47.690;8.898;2023-05-15T08:23:43;5.53;;;1.30;;
69207;SDS011;70114;47.690;8.898;2023-05-15T08:26:08;6.22;;;1.40;;
69207;SDS011;70114;47.690;8.898;2023-05-15T08:28:34;5.93;;;1.50;;
69207;SDS011;70114;47.690;8.898;2023-05-15T08:30:59;5.50;;;1.33;;
69207;SDS011;70114;47.690;8.898;2023-05-15T08:33:25;5.60;;;1.70;;
69207;SDS011;70114;47.690;8.898;2023-05-15T08:35:50;5.77;;;1.70;;
69207;SDS011;70114;47.690;8.898;2023-05-15T08:38:16;5.90;;;1.52;;
69207;SDS011;70114;47.690;8.898;2023-05-15T08:40:41;6.03;;;1.50;;
69207;SDS011;70114;47.690;8.898;2023-05-15T08:43:11;5.90;;;1.70;;
69207;SDS011;70114;47.690;8.898;2023-05-15T08:45:39;5.90;;;1.70;;
69207;SDS011;70114;47.690;8.898;2023-05-15T08:48:07;6.70;;;1.65;;
69207;SDS011;70114;47.690;8.898;2023-05-15T08:50:37;5.97;;;1.60;;
69207;SDS011;70114;47.690;8.898;2023-05-15T08:53:03;5.77;;;1.50;;
69207;SDS011;70114;47.690;8.898;2023-05-15T08:55:29;5.13;;;1.02;;
69207;SDS011;70114;47.690;8.898;2023-05-15T08:57:54;5.77;;;1.40;;
69207;SDS011;70114;47.690;8.898;2023-05-15T09:00:21;6.00;;;1.58;;
69207;SDS011;70114;47.690;8.898;2023-05-15T09:02:47;6.10;;;1.40;;
69207;SDS011;70114;47.690;8.898;2023-05-15T09:05:12;6.20;;;1.60;;
69207;SDS011;70114;47.690;8.898;2023-05-15T09:07:38;6.07;;;1.77;;
69207;SDS011;70114;47.690;8.898;2023-05-15T09:10:08;6.18;;;1.85;;
69207;SDS011;70114;47.690;8.898;2023-05-15T09:12:35;6.32;;;1.80;;
69207;SDS011;70114;47.690;8.898;2023-05-15T09:17:34;7.22;;;2.17;;
69207;SDS011;70114;47.690;8.898;2023-05-15T09:20:00;6.83;;;2.27;;
69207;SDS011;70114;47.690;8.898;2023-05-15T09:22:29;7.32;;;2.30;;
69207;SDS011;70114;47.690;8.898;2023-05-15T09:24:58;7.10;;;2.27;;
69207;SDS011;70114;47.690;8.898;2023-05-15T09:27:23;7.83;;;2.17;;
69207;SDS011;70114;47.690;8.898;2023-05-15T09:29:48;6.90;;;2.33;;
69207;SDS011;70114;47.690;8.898;2023-05-15T09:32:18;7.72;;;2.63;;
69207;SDS011;70114;47.690;8.898;2023-05-15T09:34:44;8.13;;;2.93;;
69207;SDS011;70114;47.690;8.898;2023-05-15T09:37:12;7.45;;;2.92;;
69207;SDS011;70114;47.690;8.898;2023-05-15T09:39:52;8.23;;;3.13;;
69207;SDS011;70114;47.690;8.898;2023-05-15T09:42:17;7.90;;;3.17;;
69207;SDS011;70114;47.690;8.898;2023-05-15T09:44:43;8.80;;;3.47;;
69207;SDS011;70114;47.690;8.898;2023-05-15T09:47:11;8.43;;;3.38;;
69207;SDS011;70114;47.690;8.898;2023-05-15T09:49:37;10.20;;;4.20;;
69207;SDS011;70114;47.690;8.898;2023-05-15T09:52:06;10.33;;;3.57;;
69207;SDS011;70114;47.690;8.898;2023-05-15T09:54:33;9.05;;;3.78;;
69207;SDS011;70114;47.690;8.898;2023-05-15T09:57:06;10.45;;;3.97;;
69207;SDS011;70114;47.690;8.898;2023-05-15T09:59:32;9.27;;;3.63;;
69207;SDS011;70114;47.690;8.898;2023-05-15T10:01:58;9.97;;;3.63;;
69207;SDS011;70114;47.690;8.898;2023-05-15T10:04:23;10.47;;;4.07;;
69207;SDS011;70114;47.690;8.898;2023-05-15T10:06:48;11.50;;;4.57;;
69207;SDS011;70114;47.690;8.898;2023-05-15T10:09:14;12.00;;;4.93;;
69207;SDS011;70114;47.690;8.898;2023-05-15T10:11:40;10.95;;;4.50;;
69207;SDS011;70114;47.690;8.898;2023-05-15T10:14:11;10.30;;;4.55;;
69207;SDS011;70114;47.690;8.898;2023-05-15T10:16:38;11.13;;;4.70;;
69207;SDS011;70114;47.690;8.898;2023-05-15T10:19:12;11.57;;;4.32;;
69207;SDS011;70114;47.690;8.898;2023-05-15T10:21:38;9.77;;;3.70;;
69207;SDS011;70114;47.690;8.898;2023-05-15T10:24:05;8.23;;;3.63;;
69207;SDS011;70114;47.690;8.898;2023-05-15T10:26:34;8.60;;;3.55;;
69207;SDS011;70114;47.690;8.898;2023-05-15T10:29:13;8.77;;;3.73;;
69207;SDS011;70114;47.690;8.898;2023-05-15T10:31:42;8.35;;;3.20;;
69207;SDS011;70114;47.690;8.898;2023-05-15T10:34:08;8.80;;;3.80;;
69207;SDS011;70114;47.690;8.898;2023-05-15T10:36:34;7.53;;;3.25;;
69207;SDS011;70114;47.690;8.898;2023-05-15T10:39:02;8.70;;;3.58;;
69207;SDS011;70114;47.690;8.898;2023-05-15T10:41:29;8.23;;;3.45;;
69207;SDS011;70114;47.690;8.898;2023-05-15T10:43:59;7.70;;;3.20;;
69207;SDS011;70114;47.690;8.898;2023-05-15T10:46:25;7.20;;;3.07;;
69207;SDS011;70114;47.690;8.898;2023-05-15T10:48:52;7.78;;;2.88;;
69207;SDS011;70114;47.690;8.898;2023-05-15T10:51:22;8.18;;;2.78;;
69207;SDS011;70114;47.690;8.898;2023-05-15T10:53:55;7.57;;;2.90;;
69207;SDS011;70114;47.690;8.898;2023-05-15T10:56:31;8.15;;;2.83;;
69207;SDS011;70114;47.690;8.898;2023-05-15T10:59:03;7.53;;;2.78;;
69207;SDS011;70114;47.690;8.898;2023-05-15T11:01:34;8.13;;;3.00;;
69207;SDS011;70114;47.690;8.898;2023-05-15T11:06:33;7.20;;;2.93;;
69207;SDS011;70114;47.690;8.898;2023-05-15T11:22:00;7.70;;;3.00;;
69207;SDS011;70114;47.690;8.898;2023-05-15T11:24:46;8.07;;;3.03;;
69207;SDS011;70114;47.690;8.898;2023-05-15T11:27:15;8.25;;;3.40;;
69207;SDS011;70114;47.690;8.898;2023-05-15T11:30:07;8.40;;;3.65;;
69207;SDS011;70114;47.690;8.898;2023-05-15T11:35:10;7.10;;;3.03;;
69207;SDS011;70114;47.690;8.898;2023-05-15T11:37:42;7.72;;;3.22;;
69207;SDS011;70114;47.690;8.898;2023-05-15T11:40:17;7.72;;;3.63;;
69207;SDS011;70114;47.690;8.898;2023-05-15T11:45:34;8.13;;;3.72;;
69207;SDS011;70114;47.690;8.898;2023-05-15T11:48:03;7.67;;;3.30;;
69207;SDS011;70114;47.690;8.898;2023-05-15T11:50:30;8.23;;;3.45;;
69207;SDS011;70114;47.690;8.898;2023-05-15T11:53:00;7.68;;;2.92;;
69207;SDS011;70114;47.690;8.898;2023-05-15T11:55:26;7.18;;;3.20;;
69207;SDS011;70114;47.690;8.898;2023-05-15T11:57:53;7.63;;;3.25;;
69207;SDS011;70114;47.690;8.898;2023-05-15T12:00:19;7.93;;;3.10;;
69207;SDS011;70114;47.690;8.898;2023-05-15T12:02:45;7.85;;;3.10;;
69207;SDS011;70114;47.690;8.898;2023-05-15T12:05:10;7.67;;;3.37;;
69207;SDS011;70114;47.690;8.898;2023-05-15T12:07:45;7.50;;;3.37;;
69207;SDS011;70114;47.690;8.898;2023-05-15T12:10:11;8.13;;;3.65;;
69207;SDS011;70114;47.690;8.898;2023-05-15T12:12:40;7.32;;;3.13;;
69207;SDS011;70114;47.690;8.898;2023-05-15T12:15:14;8.93;;;3.70;;
69207;SDS011;70114;47.690;8.898;2023-05-15T12:17:41;7.73;;;3.80;;
69207;SDS011;70114;47.690;8.898;2023-05-15T12:20:14;9.07;;;4.43;;
69207;SDS011;70114;47.690;8.898;2023-05-15T12:22:41;9.98;;;4.30;;
69207;SDS011;70114;47.690;8.898;2023-05-15T12:25:07;7.73;;;3.40;;
69207;SDS011;70114;47.690;8.898;2023-05-15T12:27:33;7.85;;;3.72;;
69207;SDS011;70114;47.690;8.898;2023-05-15T12:30:00;7.72;;;3.22;;
69207;SDS011;70114;47.690;8.898;2023-05-15T12:32:28;7.90;;;3.28;;
69207;SDS011;70114;47.690;8.898;2023-05-15T12:34:56;3.60;;;0.90;;
69207;SDS011;70114;47.690;8.898;2023-05-15T12:37:21;4.38;;;0.98;;
69207;SDS011;70114;47.690;8.898;2023-05-15T12:39:51;4.23;;;0.90;;
69207;SDS011;70114;47.690;8.898;2023-05-15T12:42:23;5.30;;;1.10;;
69207;SDS011;70114;47.690;8.898;2023-05-15T12:44:49;4.60;;;1.10;;
69207;SDS011;70114;47.690;8.898;2023-05-15T12:47:20;6.38;;;1.20;;
69207;SDS011;70114;47.690;8.898;2023-05-15T12:49:47;4.80;;;1.23;;
69207;SDS011;70114;47.690;8.898;2023-05-15T12:52:13;4.80;;;1.27;;
69207;SDS011;70114;47.690;8.898;2023-05-15T12:54:39;4.70;;;1.15;;
69207;SDS011;70114;47.690;8.898;2023-05-15T12:57:08;5.72;;;1.20;;
69207;SDS011;70114;47.690;8.898;2023-05-15T12:59:33;5.13;;;1.20;;
69207;SDS011;70114;47.690;8.898;2023-05-15T13:01:59;4.82;;;1.10;;
69207;SDS011;70114;47.690;8.898;2023-05-15T13:04:25;5.53;;;1.17;;
69207;SDS011;70114;47.690;8.898;2023-05-15T13:06:50;6.10;;;1.80;;
69207;SDS011;70114;47.690;8.898;2023-05-15T13:09:20;6.13;;;1.40;;
69207;SDS011;70114;47.690;8.898;2023-05-15T13:11:46;4.87;;;1.10;;
69207;SDS011;70114;47.690;8.898;2023-05-15T13:14:12;6.38;;;2.28;;
69207;SDS011;70114;47.690;8.898;2023-05-15T13:16:41;6.78;;;2.50;;
69207;SDS011;70114;47.690;8.898;2023-05-15T13:19:07;17.63;;;9.93;;
69207;SDS011;70114;47.690;8.898;2023-05-15T13:21:33;5.77;;;1.67;;
69207;SDS011;70114;47.690;8.898;2023-05-15T13:23:59;5.80;;;1.20;;
69207;SDS011;70114;47.690;8.898;2023-05-15T13:26:25;5.30;;;1.20;;
69207;SDS011;70114;47.690;8.898;2023-05-15T13:28:50;5.07;;;1.20;;
69207;SDS011;70114;47.690;8.898;2023-05-15T13:31:16;5.53;;;1.70;;
69207;SDS011;70114;47.690;8.898;2023-05-15T13:33:41;9.67;;;1.77;;
69207;SDS011;70114;47.690;8.898;2023-05-15T13:36:07;6.88;;;2.20;;
69207;SDS011;70114;47.690;8.898;2023-05-15T13:38:32;7.90;;;3.70;;
69207;SDS011;70114;47.690;8.898;2023-05-15T13:40:58;5.72;;;1.65;;
69207;SDS011;70114;47.690;8.898;2023-05-15T13:43:23;6.03;;;1.70;;
69207;SDS011;70114;47.690;8.898;2023-05-15T13:45:49;5.87;;;1.97;;
69207;SDS011;70114;47.690;8.898;2023-05-15T13:48:14;6.30;;;2.70;;
69207;SDS011;70114;47.690;8.898;2023-05-15T13:50:40;9.90;;;5.20;;
69207;SDS011;70114;47.690;8.898;2023-05-15T13:53:07;7.63;;;3.40;;
69207;SDS011;70114;47.690;8.898;2023-05-15T13:55:32;7.53;;;1.70;;
69207;SDS011;70114;47.690;8.898;2023-05-15T13:57:58;5.60;;;2.00;;
69207;SDS011;70114;47.690;8.898;2023-05-15T14:00:25;5.70;;;2.13;;
69207;SDS011;70114;47.690;8.898;2023-05-15T14:02:50;5.38;;;1.30;;
69207;SDS011;70114;47.690;8.898;2023-05-15T14:05:16;6.90;;;2.20;;
69207;SDS011;70114;47.690;8.898;2023-05-15T14:07:42;4.50;;;1.27;;
69207;SDS011;70114;47.690;8.898;2023-05-15T14:10:08;5.00;;;1.20;;
69207;SDS011;70114;47.690;8.898;2023-05-15T14:12:34;5.55;;;1.33;;
69207;SDS011;70114;47.690;8.898;2023-05-15T14:15:00;4.00;;;1.00;;
69207;SDS011;70114;47.690;8.898;2023-05-15T14:17:26;4.23;;;1.00;;
69207;SDS011;70114;47.690;8.898;2023-05-15T14:19:54;4.20;;;0.85;;
69207;SDS011;70114;47.690;8.898;2023-05-15T14:22:20;2.97;;;0.60;;
69207;SDS011;70114;47.690;8.898;2023-05-15T14:24:48;3.58;;;0.70;;
69207;SDS011;70114;47.690;8.898;2023-05-15T14:27:14;4.53;;;1.00;;
69207;SDS011;70114;47.690;8.898;2023-05-15T14:29:40;3.47;;;0.70;;
69207;SDS011;70114;47.690;8.898;2023-05-15T14:32:06;3.97;;;0.90;;
69207;SDS011;70114;47.690;8.898;2023-05-15T14:34:32;3.40;;;0.57;;
69207;SDS011;70114;47.690;8.898;2023-05-15T14:36:57;4.47;;;0.80;;
69207;SDS011;70114;47.690;8.898;2023-05-15T14:39:23;3.53;;;0.70;;
69207;SDS011;70114;47.690;8.898;2023-05-15T14:41:48;3.23;;;0.70;;
69207;SDS011;70114;47.690;8.898;2023-05-15T14:44:14;3.03;;;0.60;;
69207;SDS011;70114;47.690;8.898;2023-05-15T14:46:41;3.03;;;0.60;;
69207;SDS011;70114;47.690;8.898;2023-05-15T14:49:06;3.00;;;0.60;;
69207;SDS011;70114;47.690;8.898;2023-05-15T14:51:32;3.03;;;0.70;;
69207;SDS011;70114;47.690;8.898;2023-05-15T14:53:57;4.13;;;0.60;;
69207;SDS011;70114;47.690;8.898;2023-05-15T14:56:23;2.83;;;0.50;;
69207;SDS011;70114;47.690;8.898;2023-05-15T14:58:49;2.72;;;0.50;;
69207;SDS011;70114;47.690;8.898;2023-05-15T15:01:15;2.60;;;0.60;;
69207;SDS011;70114;47.690;8.898;2023-05-15T15:03:41;3.40;;;0.80;;
69207;SDS011;70114;47.690;8.898;2023-05-15T15:06:06;1.80;;;0.40;;
69207;SDS011;70114;47.690;8.898;2023-05-15T15:08:32;3.63;;;0.50;;
69207;SDS011;70114;47.690;8.898;2023-05-15T15:10:58;1.73;;;0.30;;
69207;SDS011;70114;47.690;8.898;2023-05-15T15:13:23;8.87;;;3.10;;